Time;durP1;ratioP1;P1;durP2;ratioP2;P2;SDS_P1;SDS_P2;PMS_P1;PMS_P2;Temp;Humidity;BMP_temperature;BMP_pressure;BME280_temperature;BME280_humidity;BME280_pressure;Samples;Min_cycle;Max_cycle;Signal;HPM_P1;HPM_P2
2021/12/10 00:00:35;;;;;;;3.67;3.17;;;;;;;-0.17;86.61;96507.38;6371384;27;20686;-64
2021/12/10 00:03:47;;;;;;;3.60;3.30;;;;;;;-0.14;86.63;96510.66;6370622;27;20633;-64
2021/12/10 00:06:53;;;;;;;2.70;2.50;;;;;;;-0.21;86.09;96514.50;6371605;27;20565;-72
2021/12/10 00:10:03;;;;;;;2.60;2.40;;;;;;;-0.28;86.39;96510.56;6359818;27;20583;-64
2021/12/10 00:13:06;;;;;;;3.30;3.00;;;;;;;-0.37;86.63;96519.69;6352715;27;20232;-65
2021/12/10 00:16:08;;;;;;;2.63;2.37;;;;;;;-0.40;87.08;96508.69;6371170;27;20211;-64
2021/12/10 00:19:31;;;;;;;3.13;2.80;;;;;;;-0.46;86.90;96512.44;6371280;27;20528;-64
2021/12/10 00:22:40;;;;;;;3.47;2.97;;;;;;;-0.53;87.24;96516.28;6370706;27;20195;-65
2021/12/10 00:25:51;;;;;;;3.97;3.40;;;;;;;-0.45;87.33;96515.88;6371355;27;20552;-65
2021/12/10 00:29:01;;;;;;;5.17;3.90;;;;;;;-0.42;87.44;96529.50;6371540;27;20628;-65
2021/12/10 00:32:16;;;;;;;3.90;3.47;;;;;;;-0.31;87.75;96522.88;6370318;27;20177;-65
2021/12/10 00:35:23;;;;;;;3.37;3.07;;;;;;;-0.38;87.53;96525.81;6370976;27;20192;-65
2021/12/10 00:38:26;;;;;;;4.10;2.83;;;;;;;-0.47;87.24;96525.47;6384614;27;20200;-65
2021/12/10 00:41:29;;;;;;;3.97;3.53;;;;;;;-0.51;87.40;96521.41;6376438;27;20196;-64
2021/12/10 00:44:31;;;;;;;3.40;3.10;;;;;;;-0.59;87.71;96513.19;6370489;27;20594;-65
2021/12/10 00:47:35;;;;;;;4.10;3.70;;;;;;;-0.62;88.10;96501.25;6370450;27;20568;-64
2021/12/10 00:50:44;;;;;;;4.90;4.40;;;;;;;-0.53;88.06;96508.53;6370361;27;20288;-65
2021/12/10 00:53:47;;;;;;;5.23;4.20;;;;;;;-0.27;87.88;96509.66;6370489;27;20204;-65
2021/12/10 00:56:50;;;;;;;4.10;3.70;;;;;;;-0.27;87.51;96501.88;6351595;27;20288;-65
2021/12/10 00:59:52;;;;;;;3.70;3.40;;;;;;;-0.33;87.58;96499.66;6370294;27;20237;-65
2021/12/10 01:02:54;;;;;;;3.70;3.40;;;;;;;-0.36;87.07;96502.41;6369672;27;20672;-65
2021/12/10 01:06:01;;;;;;;4.10;3.70;;;;;;;-0.46;87.52;96503.81;6369957;27;20199;-65
2021/12/10 01:09:10;;;;;;;4.70;4.27;;;;;;;-0.39;88.00;96487.00;6389347;27;20199;-64
2021/12/10 01:12:36;;;;;;;4.17;3.73;;;;;;;-0.31;87.26;96499.56;6377938;27;20247;-71
2021/12/10 01:15:54;;;;;;;3.73;3.43;;;;;;;-0.43;87.16;96501.06;6369246;27;20669;-65
2021/12/10 01:26:09;;;;;;;4.00;3.60;;;;;;;-0.57;88.13;96509.59;6370178;27;20725;-65
2021/12/10 01:29:17;;;;;;;4.20;3.13;;;;;;;-0.67;87.90;96512.78;6369413;27;20653;-65
2021/12/10 01:32:19;;;;;;;3.73;3.13;;;;;;;-0.59;88.03;96523.56;6350673;27;20549;-65
2021/12/10 01:35:26;;;;;;;3.67;3.30;;;;;;;-0.60;87.64;96517.53;6369874;27;20275;-65
2021/12/10 01:38:31;;;;;;;4.00;3.60;;;;;;;-0.61;87.55;96504.69;6377630;27;20899;-65
2021/12/10 01:41:37;;;;;;;3.50;3.20;;;;;;;-0.62;87.65;96508.19;6368574;27;20196;-65
2021/12/10 01:44:45;;;;;;;4.57;3.40;;;;;;;-0.62;87.64;96508.19;6370258;27;20161;-65
2021/12/10 01:47:53;;;;;;;3.40;3.10;;;;;;;-0.68;87.51;96511.94;6369460;27;20177;-64
2021/12/10 01:50:58;;;;;;;4.33;3.30;;;;;;;-0.54;88.10;96508.59;6368716;27;20192;-65
2021/12/10 01:54:06;;;;;;;4.23;3.83;;;;;;;-0.63;87.49;96504.78;6369017;27;20199;-70
2021/12/10 01:57:11;;;;;;;5.93;4.10;;;;;;;-0.54;87.58;96500.84;6368586;27;20679;-65
2021/12/10 02:00:15;;;;;;;3.73;3.43;;;;;;;-0.48;87.76;96490.13;6369327;27;20218;-65
2021/12/10 02:03:17;;;;;;;4.10;3.60;;;;;;;-0.55;87.62;96491.38;6368439;27;20275;-65
2021/12/10 02:06:20;;;;;;;5.77;3.97;;;;;;;-0.65;87.29;96491.06;6368541;27;20644;-65
2021/12/10 02:09:23;;;;;;;4.07;3.53;;;;;;;-0.77;87.53;96497.75;6385585;27;20188;-64
2021/12/10 02:12:26;;;;;;;4.23;3.40;;;;;;;-0.82;87.78;96496.34;6367882;27;20232;-65
2021/12/10 02:15:29;;;;;;;3.50;3.20;;;;;;;-0.92;87.75;96492.56;6368919;27;20173;-64
2021/12/10 02:18:31;;;;;;;4.37;3.40;;;;;;;-0.99;88.14;96489.44;6368232;27;20200;-64
2021/12/10 02:21:36;;;;;;;3.57;3.17;;;;;;;-1.12;88.00;96491.03;6368368;27;20208;-64
2021/12/10 02:24:38;;;;;;;4.13;3.10;;;;;;;-1.19;88.17;96495.69;6368253;28;20707;-65
2021/12/10 02:27:40;;;;;;;5.87;3.67;;;;;;;-1.25;88.48;96497.78;6372918;27;20195;-64
2021/12/10 02:30:43;;;;;;;5.53;4.40;;;;;;;-1.25;88.79;96500.38;6376763;27;20843;-67
2021/12/10 02:33:45;;;;;;;6.03;3.67;;;;;;;-1.10;88.72;96496.16;6376493;27;20267;-65
2021/12/10 02:36:48;;;;;;;6.27;4.10;;;;;;;-1.07;88.73;96499.38;6376975;27;20200;-65
2021/12/10 02:39:51;;;;;;;6.43;4.90;;;;;;;-1.03;88.99;96500.91;6353442;27;20656;-65
2021/12/10 02:42:54;;;;;;;5.60;4.97;;;;;;;-0.84;89.12;96496.41;6376540;27;20672;-65
2021/12/10 02:45:57;;;;;;;7.63;4.80;;;;;;;-0.79;88.82;96502.16;6377035;27;20360;-65
2021/12/10 02:49:00;;;;;;;5.00;4.27;;;;;;;-0.84;88.47;96496.41;6376663;27;20193;-67
2021/12/10 02:52:04;;;;;;;5.83;4.07;;;;;;;-0.79;88.59;96493.56;6376431;27;20321;-65
2021/12/10 02:55:10;;;;;;;5.27;4.10;;;;;;;-0.72;88.62;96497.50;6376866;27;20273;-66
2021/12/10 02:58:14;;;;;;;6.57;4.40;;;;;;;-0.65;88.63;96490.22;6377128;27;20204;-64
2021/12/10 03:01:28;;;;;;;7.13;4.87;;;;;;;-0.51;88.03;96491.16;6376640;27;20640;-65
2021/12/10 03:04:32;;;;;;;7.67;4.60;;;;;;;-0.46;88.13;96493.47;6376122;27;20189;-65
2021/12/10 03:07:36;;;;;;;6.73;4.00;;;;;;;-0.44;87.59;96478.66;6362837;27;20785;-65
2021/12/10 03:10:39;;;;;;;5.43;4.00;;;;;;;-0.39;87.40;96487.00;6376564;27;20719;-65
2021/12/10 03:13:42;;;;;;;5.40;3.80;;;;;;;-0.38;87.04;96484.34;6375811;27;20792;-65
2021/12/10 03:16:46;;;;;;;4.90;4.17;;;;;;;-0.42;87.47;96493.22;6376482;27;20308;-64
2021/12/10 03:19:49;;;;;;;7.20;4.13;;;;;;;-0.43;87.05;96488.13;6376293;27;20217;-66
2021/12/10 03:22:51;;;;;;;7.87;4.20;;;;;;;-0.55;87.10;96484.44;6376022;27;20683;-64
2021/12/10 03:25:53;;;;;;;5.17;3.73;;;;;;;-0.64;87.37;96482.38;6376223;27;20728;-65
2021/12/10 03:28:57;;;;;;;5.07;3.70;;;;;;;-0.53;87.32;96490.38;6376508;27;20218;-64
2021/12/10 03:32:02;;;;;;;5.23;3.33;;;;;;;-0.49;87.36;96476.31;6375852;27;20192;-65
2021/12/10 03:35:14;;;;;;;6.67;3.50;;;;;;;-0.46;87.20;96472.72;6375974;27;20172;-65
2021/12/10 03:38:21;;;;;;;4.23;3.33;;;;;;;-0.44;86.88;96474.31;6386266;27;20200;-65
2021/12/10 03:41:23;;;;;;;4.20;3.00;;;;;;;-0.46;86.75;96470.97;6372393;27;20709;-64
2021/12/10 03:44:27;;;;;;;3.30;3.00;;;;;;;-0.51;86.86;96473.00;6371669;27;20207;-65
2021/12/10 03:47:29;;;;;;;6.17;3.40;;;;;;;-0.51;86.92;96472.16;6371904;27;20656;-65
2021/12/10 03:50:32;;;;;;;4.33;3.43;;;;;;;-0.44;86.54;96463.13;6372174;27;20192;-64
2021/12/10 03:53:35;;;;;;;5.07;3.57;;;;;;;-0.37;86.44;96459.25;6371349;27;20756;-64
2021/12/10 03:56:39;;;;;;;5.60;2.73;;;;;;;-0.33;86.20;96457.34;6371879;27;20181;-64
2021/12/10 03:59:41;;;;;;;4.33;2.93;;;;;;;-0.38;86.33;96465.34;6371640;27;20193;-64
2021/12/10 04:02:44;;;;;;;3.67;3.10;;;;;;;-0.43;86.23;96463.03;6371396;27;20237;-64
2021/12/10 04:05:47;;;;;;;6.23;3.50;;;;;;;-0.55;85.92;96455.94;6371471;27;20185;-65
2021/12/10 04:08:49;;;;;;;5.23;3.23;;;;;;;-0.87;85.79;96459.47;6388793;27;20188;-65
2021/12/10 04:11:53;;;;;;;4.70;3.43;;;;;;;-1.22;85.92;96454.47;6373537;27;20288;-65
2021/12/10 04:14:55;;;;;;;6.30;4.10;;;;;;;-1.67;85.49;96455.09;6371202;27;20224;-65
2021/12/10 04:17:58;;;;;;;8.60;5.40;;;;;;;-1.98;85.55;96463.59;6371455;27;20663;-65
2021/12/10 04:21:00;;;;;;;8.40;5.97;;;;;;;-2.14;85.51;96461.84;6370849;27;20663;-64
2021/12/10 04:24:02;;;;;;;10.00;5.07;;;;;;;-2.35;85.53;96471.50;6370855;27;20654;-65
2021/12/10 04:27:07;;;;;;;7.53;4.00;;;;;;;-2.52;86.02;96469.72;6371598;27;20188;-65
2021/12/10 04:30:12;;;;;;;4.03;2.87;;;;;;;-2.68;86.21;96463.59;6352931;27;20245;-65
2021/12/10 04:33:21;;;;;;;4.00;2.90;;;;;;;-2.82;85.60;96463.44;6352221;27;20196;-65
2021/12/10 04:36:24;;;;;;;3.67;2.60;;;;;;;-2.92;85.41;96473.38;6352594;27;20177;-65
2021/12/10 04:39:29;;;;;;;4.27;3.10;;;;;;;-3.05;85.66;96469.66;6393033;27;20617;-65
2021/12/10 04:42:33;;;;;;;2.97;2.67;;;;;;;-3.13;86.01;96472.59;6352463;27;20196;-65
2021/12/10 04:45:35;;;;;;;7.07;2.60;;;;;;;-3.22;85.57;96467.03;6370303;27;20721;-65
2021/12/10 04:49:00;;;;;;;2.97;2.43;;;;;;;-3.30;86.01;96469.13;6370534;27;20607;-65
2021/12/10 04:52:04;;;;;;;6.10;2.23;;;;;;;-3.35;86.11;96475.31;6370166;27;20193;-65
2021/12/10 04:55:10;;;;;;;4.87;2.30;;;;;;;-3.43;85.95;96469.66;6370201;27;20533;-65
2021/12/10 04:58:12;;;;;;;2.87;2.30;;;;;;;-3.48;86.16;96463.84;6370420;27;20538;-65
2021/12/10 05:01:15;;;;;;;3.37;2.50;;;;;;;-3.48;85.92;96468.19;6370087;27;20184;-65
2021/12/10 05:04:17;;;;;;;4.37;2.97;;;;;;;-3.53;85.95;96467.56;6370782;27;20188;-65
2021/12/10 05:07:19;;;;;;;3.10;2.40;;;;;;;-3.55;86.41;96467.63;6374371;27;20183;-66
2021/12/10 05:10:22;;;;;;;4.27;2.57;;;;;;;-3.63;86.40;96461.13;6373540;27;20291;-66
2021/12/10 05:13:24;;;;;;;2.63;2.13;;;;;;;-3.70;86.50;96460.56;6369607;27;20598;-65
2021/12/10 05:16:27;;;;;;;2.57;1.90;;;;;;;-3.70;86.24;96463.16;6369703;27;20667;-65
2021/12/10 05:19:30;;;;;;;3.47;2.80;;;;;;;-3.68;86.25;96463.06;6369866;27;20594;-66
2021/12/10 05:22:33;;;;;;;3.10;2.30;;;;;;;-3.69;86.54;96464.00;6351562;27;20193;-66
2021/12/10 05:25:34;;;;;;;3.17;2.37;;;;;;;-3.76;86.46;96456.50;6369194;27;20238;-65
2021/12/10 05:28:37;;;;;;;2.93;2.50;;;;;;;-3.77;86.67;96447.09;6369839;27;20192;-66
2021/12/10 05:31:43;;;;;;;5.17;2.40;;;;;;;-3.79;87.05;96453.22;6369324;27;20551;-65
2021/12/10 05:34:48;;;;;;;3.53;2.13;;;;;;;-3.82;86.79;96456.78;6369172;27;20197;-66
2021/12/10 05:37:50;;;;;;;3.27;2.57;;;;;;;-3.83;86.38;96459.44;6377788;27;20299;-66
2021/12/10 05:40:55;;;;;;;4.00;2.20;;;;;;;-3.81;86.56;96457.63;6377399;27;20780;-66
2021/12/10 05:43:57;;;;;;;4.93;2.57;;;;;;;-3.79;87.05;96450.63;6350862;27;20880;-66
2021/12/10 05:47:01;;;;;;;3.73;2.30;;;;;;;-3.85;87.40;96446.59;6369149;27;20288;-66
2021/12/10 05:50:09;;;;;;;3.60;2.40;;;;;;;-3.87;86.93;96445.00;6369002;27;20671;-66
2021/12/10 05:53:11;;;;;;;5.03;2.30;;;;;;;-3.87;87.11;96445.00;6368796;27;20189;-66
2021/12/10 05:56:13;;;;;;;6.10;2.60;;;;;;;-3.90;87.46;96447.72;6368574;27;20257;-66
2021/12/10 05:59:15;;;;;;;2.87;1.97;;;;;;;-3.92;87.63;96450.34;6369121;27;20232;-66
2021/12/10 06:02:17;;;;;;;3.20;2.10;;;;;;;-3.92;87.27;96442.63;6367804;27;20196;-66
2021/12/10 06:05:21;;;;;;;2.77;2.23;;;;;;;-3.92;87.18;96442.63;6368686;27;20659;-66
2021/12/10 06:08:23;;;;;;;2.63;2.10;;;;;;;-3.97;87.66;96439.41;6381912;27;20187;-66
2021/12/10 06:11:27;;;;;;;2.57;2.20;;;;;;;-4.02;87.12;96443.09;6382435;27;20793;-66
2021/12/10 06:14:29;;;;;;;2.80;2.20;;;;;;;-4.09;87.51;96442.50;6333177;27;20231;-66
2021/12/10 06:17:31;;;;;;;3.03;2.50;;;;;;;-4.10;87.05;96438.25;6368131;27;20201;-67
2021/12/10 06:20:37;;;;;;;2.70;2.33;;;;;;;-4.15;88.11;96440.19;6350352;27;20660;-67
2021/12/10 06:23:40;;;;;;;3.13;2.10;;;;;;;-4.17;87.86;96444.56;6368104;27;20177;-67
2021/12/10 06:26:42;;;;;;;3.03;2.00;;;;;;;-4.20;87.87;96434.41;6368522;28;20283;-67
2021/12/10 06:29:44;;;;;;;4.43;2.10;;;;;;;-4.24;87.64;96443.16;6368363;28;20188;-67
2021/12/10 06:32:50;;;;;;;3.00;2.47;;;;;;;-4.31;87.74;96439.16;6368088;28;20188;-67
2021/12/10 06:35:52;;;;;;;2.37;1.80;;;;;;;-4.36;87.92;96441.06;6350094;28;20188;-67
2021/12/10 06:38:54;;;;;;;3.30;2.00;;;;;;;-4.40;88.08;96435.25;6375788;27;20342;-67
2021/12/10 06:41:56;;;;;;;3.57;2.30;;;;;;;-4.44;88.00;96443.97;6368388;28;20283;-67
2021/12/10 06:44:58;;;;;;;4.43;1.90;;;;;;;-4.52;87.41;96436.56;6368180;28;20192;-67
2021/12/10 06:48:02;;;;;;;3.20;2.10;;;;;;;-4.52;87.91;96435.72;6368005;28;20534;-67
2021/12/10 06:51:09;;;;;;;3.90;2.07;;;;;;;-4.56;87.87;96434.16;6349989;28;20337;-67
2021/12/10 06:54:11;;;;;;;2.47;2.00;;;;;;;-4.63;87.41;96433.59;6367931;28;20686;-67
2021/12/10 06:57:14;;;;;;;3.33;2.10;;;;;;;-4.69;87.26;96433.81;6368383;28;20753;-67
2021/12/10 07:00:42;;;;;;;2.30;1.50;;;;;;;-4.72;87.47;96433.97;6349808;28;20668;-67
2021/12/10 07:03:46;;;;;;;2.97;1.60;;;;;;;-4.73;86.91;96428.88;6349739;28;20272;-67
2021/12/10 07:06:48;;;;;;;2.80;1.90;;;;;;;-4.78;87.39;96418.75;6349524;28;20800;-67
2021/12/10 07:09:50;;;;;;;3.03;1.67;;;;;;;-4.75;86.91;96426.38;6352218;28;20205;-67
2021/12/10 07:12:52;;;;;;;2.33;1.40;;;;;;;-4.74;87.20;96424.63;6367966;27;20568;-67
2021/12/10 07:15:55;;;;;;;3.73;1.70;;;;;;;-4.73;87.05;96424.56;6372019;27;20702;-67
2021/12/10 07:19:00;;;;;;;2.50;1.63;;;;;;;-4.74;87.03;96424.63;6372572;27;20219;-67
2021/12/10 07:22:03;;;;;;;2.43;1.50;;;;;;;-4.72;87.56;96418.53;6372426;27;20193;-67
2021/12/10 07:25:07;;;;;;;2.30;1.70;;;;;;;-4.78;87.13;96413.63;6372748;27;20676;-68
2021/12/10 07:28:09;;;;;;;1.73;1.20;;;;;;;-4.76;86.91;96419.53;6372236;27;20715;-67
2021/12/10 07:31:12;;;;;;;1.37;1.27;;;;;;;-4.72;87.61;96418.53;6372122;27;20188;-68
2021/12/10 07:34:15;;;;;;;1.20;1.10;;;;;;;-4.68;87.05;96414.06;6372275;27;20272;-68
2021/12/10 07:37:17;;;;;;;1.73;1.30;;;;;;;-4.66;86.84;96413.13;6357810;27;20188;-68
2021/12/10 07:40:24;;;;;;;1.53;1.30;;;;;;;-4.58;86.59;96412.81;6391474;27;20720;-68
2021/12/10 07:43:26;;;;;;;1.67;1.00;;;;;;;-4.55;87.18;96404.97;6353628;27;20181;-68
2021/12/10 07:46:28;;;;;;;1.30;1.10;;;;;;;-4.49;86.11;96410.69;6372032;27;20192;-68
2021/12/10 07:49:32;;;;;;;1.77;1.10;;;;;;;-4.42;86.84;96407.88;6336331;27;20758;-68
2021/12/10 07:52:34;;;;;;;3.17;1.50;;;;;;;-4.35;86.85;96398.97;6353380;27;20196;-68
2021/12/10 07:55:39;;;;;;;1.73;1.07;;;;;;;-4.27;86.69;96394.34;6353566;27;20575;-68
2021/12/10 07:58:42;;;;;;;2.10;1.50;;;;;;;-4.20;87.02;96401.75;6353272;27;20695;-67
2021/12/10 08:01:46;;;;;;;2.40;1.27;;;;;;;-4.17;86.24;96391.31;6371267;27;20200;-67
2021/12/10 08:04:49;;;;;;;2.00;1.40;;;;;;;-4.13;85.96;96390.28;6353377;27;20204;-67
2021/12/10 08:07:53;;;;;;;4.10;1.40;;;;;;;-4.06;86.44;96385.69;6358839;27;20190;-67
2021/12/10 08:10:56;;;;;;;1.83;1.30;;;;;;;-3.98;86.12;96377.63;6371566;27;20702;-67
2021/12/10 08:13:58;;;;;;;1.53;0.90;;;;;;;-3.89;86.67;96370.31;6302262;28;20533;-67
2021/12/10 08:17:02;;;;;;;1.70;1.07;;;;;;;-3.79;86.06;96374.16;6343154;28;20229;-67
2021/12/10 08:20:07;;;;;;;2.00;1.40;;;;;;;-3.68;86.29;96365.09;6345571;28;20209;-67
2021/12/10 08:23:09;;;;;;;3.13;1.03;;;;;;;-3.60;86.67;96357.88;6345656;28;20639;-67
2021/12/10 08:26:12;;;;;;;1.23;1.10;;;;;;;-3.52;85.62;96359.22;6345031;27;20197;-68
2021/12/10 08:29:20;;;;;;;4.13;1.30;;;;;;;-3.44;86.16;96349.38;6345376;28;20669;-67
2021/12/10 08:32:23;;;;;;;2.73;1.10;;;;;;;-3.37;86.03;96355.91;6345457;28;20221;-66
2021/12/10 08:35:29;;;;;;;2.73;1.27;;;;;;;-3.27;85.84;96347.72;6345311;28;20559;-67
2021/12/10 08:38:33;;;;;;;1.60;1.40;;;;;;;-3.17;86.29;96348.97;6359761;27;21035;-66
2021/12/10 08:41:35;;;;;;;4.73;1.60;;;;;;;-3.04;86.38;96337.16;6343916;27;20653;-67
2021/12/10 08:44:37;;;;;;;1.60;1.47;;;;;;;-2.83;86.07;96324.97;6345411;28;20274;-66
2021/12/10 08:47:39;;;;;;;4.13;1.50;;;;;;;-2.71;86.21;96314.03;6343766;28;20672;-66
2021/12/10 08:50:42;;;;;;;3.00;1.50;;;;;;;-2.62;85.69;96314.41;6343344;28;20197;-66
2021/12/10 08:53:45;;;;;;;1.83;1.30;;;;;;;-2.42;86.04;96308.22;6344952;28;20189;-66
2021/12/10 08:56:48;;;;;;;1.77;1.20;;;;;;;-2.19;85.78;96303.59;6345295;28;20672;-66
2021/12/10 08:59:50;;;;;;;1.57;1.30;;;;;;;-2.01;85.02;96292.34;6344453;28;20208;-65
2021/12/10 09:02:56;;;;;;;1.87;1.13;;;;;;;-1.82;84.48;96287.00;6344891;28;20306;-65
2021/12/10 09:05:58;;;;;;;1.93;1.43;;;;;;;-1.57;84.47;96290.75;6344965;28;20185;-65
2021/12/10 09:09:01;;;;;;;1.90;1.30;;;;;;;-1.23;84.08;96283.72;6362958;27;20352;-65
2021/12/10 09:12:09;;;;;;;2.10;1.10;;;;;;;-0.90;83.74;96268.84;6347639;27;20216;-65
2021/12/10 09:15:19;;;;;;;1.53;1.07;;;;;;;-0.58;82.82;96269.56;6344566;28;20197;-65
2021/12/10 09:18:22;;;;;;;1.80;1.00;;;;;;;-0.26;82.38;96265.06;6344304;28;20822;-65
2021/12/10 09:21:25;;;;;;;1.43;1.00;;;;;;;-0.06;79.97;96253.50;6343701;28;20189;-65
2021/12/10 09:24:27;;;;;;;1.83;1.10;;;;;;;0.11;80.32;96242.09;6343055;28;20193;-65
2021/12/10 09:27:29;;;;;;;1.50;0.90;;;;;;;0.50;79.59;96242.19;6344361;28;20689;-65
2021/12/10 09:30:36;;;;;;;0.93;0.70;;;;;;;0.93;79.15;96226.44;6343875;28;20189;-65
2021/12/10 09:33:38;;;;;;;0.80;0.60;;;;;;;1.19;77.78;96228.19;6343884;28;20629;-64
2021/12/10 09:36:43;;;;;;;1.30;0.80;;;;;;;1.32;77.27;96226.41;6343671;28;20177;-65
2021/12/10 09:39:48;;;;;;;1.10;0.83;;;;;;;1.54;76.80;96217.16;6345892;27;20689;-66
2021/12/10 09:42:51;;;;;;;3.07;1.03;;;;;;;1.78;76.01;96203.34;6344102;28;20209;-64
2021/12/10 09:45:55;;;;;;;1.53;0.80;;;;;;;1.85;75.56;96201.97;6342485;28;20205;-65
2021/12/10 09:48:57;;;;;;;2.03;0.80;;;;;;;2.09;74.83;96199.44;6342637;28;20193;-65
2021/12/10 09:52:04;;;;;;;1.27;1.10;;;;;;;2.37;74.70;96182.69;6343172;28;20627;-65
2021/12/10 09:55:10;;;;;;;1.00;0.80;;;;;;;2.53;73.31;96177.19;6343634;28;20753;-64
2021/12/10 09:58:13;;;;;;;2.20;1.50;;;;;;;2.55;72.06;96157.91;6342193;28;20212;-65
2021/12/10 10:01:44;;;;;;;2.47;1.53;;;;;;;2.79;72.55;96155.28;6343553;28;20641;-64
2021/12/10 10:04:50;;;;;;;1.13;1.03;;;;;;;2.90;71.83;96149.25;6342085;28;20201;-64
2021/12/10 10:07:57;;;;;;;2.93;1.53;;;;;;;2.93;71.27;96149.03;6352732;27;20265;-64
2021/12/10 10:11:09;;;;;;;2.43;1.57;;;;;;;3.00;71.07;96152.84;6342065;28;20684;-64
2021/12/10 10:14:17;;;;;;;1.70;1.20;;;;;;;3.11;69.42;96145.06;6343016;28;20236;-64
2021/12/10 10:17:22;;;;;;;2.20;1.70;;;;;;;3.03;68.39;96141.38;6343753;28;20198;-66
2021/12/10 10:20:28;;;;;;;3.83;2.17;;;;;;;3.32;68.16;96145.22;6335073;28;20665;-65
2021/12/10 10:23:31;;;;;;;2.17;1.50;;;;;;;3.51;67.76;96131.59;6342720;28;20200;-66
2021/12/10 10:26:41;;;;;;;3.93;2.00;;;;;;;3.48;67.54;96131.84;6342025;28;20233;-71
2021/12/10 10:29:57;;;;;;;3.43;1.90;;;;;;;3.59;68.29;96131.88;6342933;28;20200;-65
2021/12/10 10:33:04;;;;;;;2.37;1.70;;;;;;;3.66;68.15;96125.22;6342374;28;20197;-64
2021/12/10 10:36:19;;;;;;;2.07;1.67;;;;;;;3.74;66.85;96129.81;6342510;28;20211;-64
2021/12/10 10:39:24;;;;;;;2.70;1.70;;;;;;;3.75;67.17;96121.88;6360618;28;20264;-65
2021/12/10 10:42:29;;;;;;;3.27;2.00;;;;;;;3.62;66.78;96116.78;6341746;28;20192;-65
2021/12/10 10:45:35;;;;;;;3.80;2.33;;;;;;;3.44;65.73;96117.38;6342524;28;20196;-65
2021/12/10 10:48:40;;;;;;;3.97;2.37;;;;;;;3.41;65.38;96107.19;6344939;28;20647;-64
2021/12/10 10:51:42;;;;;;;3.67;2.87;;;;;;;3.48;65.48;96111.00;6346821;28;20196;-64
2021/12/10 10:54:46;;;;;;;4.40;3.23;;;;;;;3.38;65.55;96110.88;6347443;28;20226;-65
2021/12/10 10:57:53;;;;;;;4.97;3.30;;;;;;;3.41;65.02;96115.00;6347372;28;20201;-65
2021/12/10 11:01:24;;;;;;;4.03;3.10;;;;;;;3.40;64.99;96101.13;6345921;28;20559;-65
2021/12/10 11:04:41;;;;;;;2.90;2.60;;;;;;;3.50;65.61;96106.47;6347268;27;20591;-66
2021/12/10 11:07:51;;;;;;;4.90;2.93;;;;;;;3.44;65.18;96105.16;6353728;27;20264;-65
2021/12/10 11:10:58;;;;;;;4.93;3.50;;;;;;;3.29;64.84;96107.16;6364303;27;20210;-65
2021/12/10 11:14:09;;;;;;;5.13;4.07;;;;;;;3.12;65.34;96093.75;6346727;27;20221;-66
2021/12/10 11:17:17;;;;;;;7.90;4.37;;;;;;;3.22;65.58;96086.91;6347365;28;20585;-65
2021/12/10 11:20:33;;;;;;;6.67;3.90;;;;;;;3.27;65.18;96085.63;6322703;28;20550;-65
2021/12/10 11:23:39;;;;;;;5.97;3.90;;;;;;;3.42;64.31;96072.34;6346226;28;20577;-65
2021/12/10 11:27:00;;;;;;;5.50;4.10;;;;;;;3.75;64.99;96074.91;6346655;28;20231;-65
2021/12/10 11:30:02;;;;;;;5.07;4.13;;;;;;;3.88;63.34;96054.75;6346999;28;20190;-65
2021/12/10 11:33:13;;;;;;;6.57;3.90;;;;;;;4.09;62.43;96065.25;6346184;28;20186;-66
2021/12/10 11:36:23;;;;;;;5.63;4.27;;;;;;;3.52;62.57;96053.25;6346303;28;20203;-66
2021/12/10 11:39:46;;;;;;;5.77;4.20;;;;;;;3.34;63.09;96067.72;6353594;27;20206;-66
2021/12/10 11:42:56;;;;;;;5.90;4.43;;;;;;;3.64;63.07;96062.72;6325287;28;20194;-66
2021/12/10 11:49:21;;;;;;;7.80;5.50;;;;;;;3.59;62.10;96053.63;6346208;28;20184;-66
2021/12/10 11:52:25;;;;;;;7.40;5.67;;;;;;;3.44;62.67;96060.00;6344100;28;20198;-66
2021/12/10 11:55:27;;;;;;;8.47;6.03;;;;;;;3.42;61.35;96057.53;6345747;28;20293;-66
2021/12/10 11:58:30;;;;;;;6.70;5.10;;;;;;;3.27;61.50;96053.50;6346136;28;20271;-66
2021/12/10 12:01:46;;;;;;;7.60;5.87;;;;;;;3.32;62.33;96046.97;6343139;28;20668;-66
2021/12/10 12:05:10;;;;;;;8.23;5.97;;;;;;;3.62;62.17;96035.09;6344540;28;20186;-65
2021/12/10 12:08:16;;;;;;;7.97;6.23;;;;;;;3.71;62.10;96029.16;6357612;27;20558;-66
2021/12/10 12:11:18;;;;;;;10.27;6.60;;;;;;;3.87;61.85;96026.16;6348598;27;20262;-66
2021/12/10 12:14:26;;;;;;;9.57;6.50;;;;;;;4.00;61.83;96026.81;6345466;28;20239;-66
2021/12/10 12:17:38;;;;;;;9.37;6.07;;;;;;;4.36;61.48;96020.41;6344701;28;20211;-66
2021/12/10 12:20:45;;;;;;;8.97;6.80;;;;;;;4.53;59.71;96008.56;6344337;28;20295;-65
2021/12/10 12:27:18;;;;;;;10.37;6.63;;;;;;;4.72;59.48;96025.19;6327286;28;20688;-65
2021/12/10 12:30:54;;;;;;;9.87;7.07;;;;;;;4.86;59.25;96024.03;6345582;28;20201;-65
2021/12/10 12:34:20;;;;;;;13.70;8.50;;;;;;;4.85;59.15;96025.00;6344869;28;20204;-65
2021/12/10 12:37:23;;;;;;;10.57;7.70;;;;;;;4.84;58.41;96023.34;6350673;27;20566;-66
2021/12/10 12:40:47;;;;;;;10.47;7.30;;;;;;;4.96;58.57;96016.25;6360205;27;20201;-65
2021/12/10 12:44:12;;;;;;;11.67;8.23;;;;;;;5.44;57.20;96013.84;6343901;28;20688;-65
2021/12/10 12:47:40;;;;;;;10.63;8.20;;;;;;;6.49;54.60;96001.91;6345538;28;20330;-65
2021/12/10 12:50:44;;;;;;;10.63;7.43;;;;;;;6.96;52.31;95995.72;6344913;28;20189;-65
2021/12/10 12:53:47;;;;;;;11.67;7.90;;;;;;;5.66;54.80;96002.34;6343677;28;20195;-66
2021/12/10 12:56:52;;;;;;;10.70;7.73;;;;;;;3.77;60.07;95991.31;6343872;28;20183;-65
2021/12/10 13:00:29;;;;;;;14.03;8.47;;;;;;;2.18;65.77;95987.16;6345016;28;20247;-65
2021/12/10 13:03:40;;;;;;;13.13;8.77;;;;;;;1.38;68.87;95986.09;6344022;28;20182;-66
2021/12/10 13:07:08;;;;;;;13.30;9.40;;;;;;;1.08;69.64;95979.50;6347031;27;20181;-65
2021/12/10 13:10:18;;;;;;;14.37;9.43;;;;;;;0.88;70.98;95977.47;6344583;28;20830;-65
2021/12/10 13:13:40;;;;;;;12.63;9.10;;;;;;;0.77;71.46;95976.53;6343943;28;20343;-65
2021/12/10 13:16:50;;;;;;;14.30;9.80;;;;;;;0.60;71.84;95982.91;6344719;28;20666;-66
2021/12/10 13:19:53;;;;;;;13.30;8.73;;;;;;;0.51;72.15;95975.72;6344267;28;20206;-66
2021/12/10 13:23:02;;;;;;;13.07;8.43;;;;;;;0.43;72.81;95972.81;6344233;28;20189;-66
2021/12/10 13:26:07;;;;;;;11.97;8.67;;;;;;;0.28;73.24;95979.88;6344130;28;20200;-66
2021/12/10 13:29:09;;;;;;;12.80;8.30;;;;;;;0.19;73.31;95981.31;6344443;28;20263;-66
2021/12/10 13:32:12;;;;;;;14.03;8.60;;;;;;;0.17;73.56;95984.94;6343913;28;20189;-66
2021/12/10 13:35:17;;;;;;;13.57;8.90;;;;;;;0.12;73.70;95976.63;6342832;28;20196;-66
2021/12/10 13:38:21;;;;;;;12.33;7.97;;;;;;;0.09;73.80;95976.84;6355953;27;20201;-66
2021/12/10 13:41:27;;;;;;;12.80;7.60;;;;;;;0.10;74.20;95974.13;6342484;28;20603;-67
2021/12/10 13:47:35;;;;;;;11.37;7.00;;;;;;;0.15;74.06;95976.41;6343481;28;20232;-67
2021/12/10 13:51:01;;;;;;;13.20;7.40;;;;;;;0.10;74.10;95975.91;6343901;28;20766;-67
2021/12/10 13:54:24;;;;;;;11.57;7.37;;;;;;;0.02;75.03;95966.03;6341933;28;20711;-67
2021/12/10 13:57:27;;;;;;;11.00;7.33;;;;;;;-0.09;75.13;95971.91;6344123;28;20201;-66
2021/12/10 14:00:29;;;;;;;10.80;6.40;;;;;;;-0.17;76.20;95963.81;6343654;28;20212;-66
2021/12/10 14:03:46;;;;;;;10.77;6.80;;;;;;;-0.26;76.38;95968.75;6342895;28;20197;-67
2021/12/10 14:06:56;;;;;;;11.87;7.17;;;;;;;-0.34;76.12;95966.69;6343491;28;20266;-66
2021/12/10 14:09:59;;;;;;;9.37;6.43;;;;;;;-0.34;76.29;95961.50;6324578;28;20501;-67
2021/12/10 14:13:05;;;;;;;11.33;6.73;;;;;;;-0.38;76.70;95963.44;6342879;28;20232;-67
2021/12/10 14:16:10;;;;;;;9.87;5.97;;;;;;;-0.35;76.59;95962.41;6341538;28;20182;-67
2021/12/10 14:19:35;;;;;;;8.60;5.73;;;;;;;-0.32;76.56;95969.16;6341623;28;20212;-68
2021/12/10 14:23:01;;;;;;;10.63;6.00;;;;;;;-0.37;76.17;95977.22;6342617;28;20720;-67
2021/12/10 14:26:27;;;;;;;9.37;5.87;;;;;;;-0.46;76.55;95977.81;6342696;28;20190;-67
2021/12/10 14:30:29;;;;;;;10.60;6.63;;;;;;;-0.51;77.11;95980.72;6343095;28;20177;-68
2021/12/10 14:33:40;;;;;;;9.77;5.73;;;;;;;-0.51;77.13;95974.72;6342523;28;20740;-66
2021/12/10 14:36:56;;;;;;;8.53;5.17;;;;;;;-0.62;77.47;95969.38;6342835;28;20178;-66
2021/12/10 14:40:11;;;;;;;9.53;6.37;;;;;;;-0.77;77.64;95972.00;6319896;28;20594;-66
2021/12/10 14:43:34;;;;;;;11.13;6.20;;;;;;;-0.79;77.84;95971.25;6317799;28;20187;-67
2021/12/10 14:46:43;;;;;;;9.93;6.53;;;;;;;-0.85;78.20;95970.81;6342286;28;20200;-66
2021/12/10 14:50:05;;;;;;;11.70;6.63;;;;;;;-1.00;78.41;95982.97;6342676;28;20688;-67
2021/12/10 14:53:34;;;;;;;9.97;6.73;;;;;;;-1.04;78.70;95978.06;6342683;28;20198;-67
2021/12/10 14:57:02;;;;;;;9.87;6.43;;;;;;;-1.15;79.08;95986.50;6341511;28;20196;-67